Time;durP1;ratioP1;P1;durP2;ratioP2;P2;SDS_P1;SDS_P2;PMS_P1;PMS_P2;Temp;Humidity;BMP_temperature;BMP_pressure;BME280_temperature;BME280_humidity;BME280_pressure;Samples;Min_cycle;Max_cycle;Signal;HPM_P1;HPM_P2
2022/08/30 00:02:19;;;;;;;3.33;1.42;;;12.80;99.90;;;;;;5078709;28;20587;-70
2022/08/30 00:04:47;;;;;;;4.20;1.10;;;12.80;99.90;;;;;;5087511;28;20048;-63
2022/08/30 00:07:14;;;;;;;5.57;1.35;;;12.80;99.90;;;;;;5088715;28;20641;-63
2022/08/30 00:09:41;;;;;;;11.10;1.70;;;12.80;99.90;;;;;;5085280;28;20060;-64
2022/08/30 00:12:08;;;;;;;5.95;0.98;;;12.80;99.90;;;;;;5085607;28;20425;-67
2022/08/30 00:14:36;;;;;;;7.35;1.73;;;12.70;99.90;;;;;;5087175;28;20070;-70
2022/08/30 00:17:03;;;;;;;3.05;1.05;;;12.70;99.90;;;;;;5089383;28;20057;-65
2022/08/30 00:19:30;;;;;;;5.13;1.00;;;12.80;99.90;;;;;;5088755;28;20092;-66
2022/08/30 00:21:57;;;;;;;5.30;1.08;;;12.80;99.90;;;;;;5059914;28;20779;-67
2022/08/30 00:24:24;;;;;;;3.30;1.33;;;12.80;99.90;;;;;;5089414;28;20040;-65
2022/08/30 00:26:50;;;;;;;2.85;1.17;;;12.80;99.90;;;;;;5076990;28;20075;-64
2022/08/30 00:29:18;;;;;;;8.05;1.20;;;12.80;99.90;;;;;;5083899;28;20152;-73
2022/08/30 00:31:45;;;;;;;3.08;0.95;;;12.80;99.90;;;;;;5087978;28;20730;-65
2022/08/30 00:34:12;;;;;;;4.50;1.77;;;12.90;99.90;;;;;;5087484;28;20044;-64
2022/08/30 00:36:39;;;;;;;2.63;0.90;;;12.90;99.90;;;;;;5060878;28;20079;-68
2022/08/30 00:39:05;;;;;;;2.38;1.15;;;13.00;99.90;;;;;;5087789;28;20831;-64
2022/08/30 00:41:33;;;;;;;6.00;1.00;;;13.00;99.90;;;;;;5082614;28;20083;-72
2022/08/30 00:44:00;;;;;;;3.10;0.70;;;13.10;99.90;;;;;;5085770;28;20036;-71
2022/08/30 00:46:27;;;;;;;6.32;1.48;;;13.10;99.90;;;;;;5087571;28;20075;-64
2022/08/30 00:48:55;;;;;;;1.48;0.50;;;13.10;99.90;;;;;;5074287;28;20044;-64
2022/08/30 00:51:25;;;;;;;1.38;0.65;;;13.00;99.90;;;;;;5089047;28;20251;-67
2022/08/30 00:53:55;;;;;;;2.17;0.90;;;13.00;99.90;;;;;;5077358;28;20036;-64
2022/08/30 00:56:24;;;;;;;2.22;0.70;;;12.90;99.90;;;;;;5085259;28;20418;-66
2022/08/30 00:58:55;;;;;;;1.90;1.13;;;12.90;99.90;;;;;;5086591;28;20130;-67
2022/08/30 01:01:24;;;;;;;3.10;0.73;;;12.90;99.90;;;;;;5083239;28;20083;-68
2022/08/30 01:03:52;;;;;;;3.25;0.98;;;12.90;99.90;;;;;;5087802;28;20043;-64
2022/08/30 01:06:19;;;;;;;3.03;1.55;;;12.90;99.90;;;;;;5088201;28;20074;-65
2022/08/30 01:08:47;;;;;;;7.70;2.15;;;12.90;99.90;;;;;;5085587;28;20497;-74
2022/08/30 01:11:18;;;;;;;4.45;0.70;;;12.80;99.90;;;;;;5086633;28;20097;-64
2022/08/30 01:13:47;;;;;;;2.65;0.95;;;12.70;99.90;;;;;;5087943;28;20097;-64
2022/08/30 01:16:14;;;;;;;7.75;1.00;;;12.70;99.90;;;;;;5079610;28;20135;-65
2022/08/30 01:18:43;;;;;;;5.60;1.23;;;12.70;99.90;;;;;;5092413;27;20051;-68
2022/08/30 01:21:38;;;;;;;2.33;1.08;;;12.70;99.90;;;;;;5087388;28;20048;-68
2022/08/30 01:24:07;;;;;;;2.78;0.85;;;12.70;99.90;;;;;;5086916;28;20105;-65
2022/08/30 01:26:35;;;;;;;3.55;1.23;;;12.70;99.90;;;;;;5086331;28;20151;-66
2022/08/30 01:29:10;;;;;;;6.65;2.03;;;12.50;99.90;;;;;;5087146;28;20677;-64
2022/08/30 01:31:37;;;;;;;5.18;1.83;;;12.50;99.90;;;;;;5084286;28;20105;-66
2022/08/30 01:34:06;;;;;;;4.95;1.52;;;12.50;99.90;;;;;;5076743;28;20092;-66
2022/08/30 01:36:35;;;;;;;4.55;1.92;;;12.60;99.90;;;;;;5085640;28;20123;-65
2022/08/30 01:39:10;;;;;;;2.42;1.75;;;12.70;99.90;;;;;;5087006;28;20122;-65
2022/08/30 01:41:37;;;;;;;4.47;1.58;;;12.80;99.90;;;;;;5087835;28;20842;-69
2022/08/30 01:44:07;;;;;;;4.30;2.42;;;12.80;99.90;;;;;;5079473;28;20036;-64
2022/08/30 01:46:38;;;;;;;6.95;1.35;;;12.80;99.90;;;;;;5086079;28;20098;-68
2022/08/30 01:49:09;;;;;;;10.82;1.65;;;12.80;99.90;;;;;;5084368;28;20109;-65
2022/08/30 01:51:36;;;;;;;5.50;1.35;;;12.80;99.90;;;;;;5087593;28;20079;-68
2022/08/30 01:54:03;;;;;;;4.05;1.60;;;12.80;99.90;;;;;;5085412;28;20150;-65
2022/08/30 01:56:30;;;;;;;2.28;1.25;;;12.70;99.90;;;;;;5073999;28;20048;-66
2022/08/30 01:58:58;;;;;;;6.85;1.13;;;12.60;99.90;;;;;;5086389;28;20093;-68
2022/08/30 02:01:32;;;;;;;6.00;1.67;;;12.60;99.90;;;;;;5086342;28;20200;-64
2022/08/30 02:03:59;;;;;;;3.88;0.90;;;12.60;99.90;;;;;;5084198;28;20047;-68
2022/08/30 02:06:26;;;;;;;3.58;1.33;;;12.70;99.90;;;;;;5086034;28;20155;-64
2022/08/30 02:08:53;;;;;;;2.40;0.95;;;12.70;99.90;;;;;;5084182;28;20117;-70
2022/08/30 02:11:20;;;;;;;6.30;0.93;;;12.70;99.90;;;;;;5094745;28;20101;-68
2022/08/30 02:13:48;;;;;;;2.15;1.05;;;12.70;99.90;;;;;;5087641;28;20044;-64
2022/08/30 02:16:17;;;;;;;3.13;0.82;;;12.60;99.90;;;;;;5084129;28;20353;-65
2022/08/30 02:18:45;;;;;;;7.57;1.98;;;12.70;99.90;;;;;;5082355;28;20395;-64
2022/08/30 02:21:13;;;;;;;3.10;1.02;;;12.80;99.90;;;;;;5082910;28;20044;-66
2022/08/30 02:23:41;;;;;;;2.70;0.88;;;12.90;99.90;;;;;;5085800;28;20127;-69
2022/08/30 02:26:09;;;;;;;1.83;0.77;;;12.90;99.90;;;;;;5086504;28;20098;-65
2022/08/30 02:28:36;;;;;;;2.85;1.02;;;12.80;99.90;;;;;;5083073;28;20183;-68
2022/08/30 02:31:17;;;;;;;1.92;1.02;;;12.80;99.90;;;;;;5070382;28;20040;-64
2022/08/30 02:33:47;;;;;;;;;;;12.80;99.90;;;;;;5084955;28;20083;-64
2022/08/30 02:36:14;;;;;;;4.25;1.02;;;12.80;99.90;;;;;;5084427;28;19928;-64
2022/08/30 02:38:41;;;;;;;1.42;1.15;;;12.70;99.90;;;;;;5085335;28;20040;-64
2022/08/30 02:41:08;;;;;;;3.30;1.30;;;12.70;99.90;;;;;;5086498;28;20143;-68
2022/08/30 02:43:35;;;;;;;7.75;1.30;;;12.70;99.90;;;;;;5078408;28;20434;-67
2022/08/30 02:46:01;;;;;;;3.55;0.93;;;12.70;99.90;;;;;;5087061;28;20059;-64
2022/08/30 02:48:28;;;;;;;8.88;1.80;;;12.70;99.90;;;;;;5084610;28;20063;-67
2022/08/30 02:50:56;;;;;;;5.65;1.30;;;12.70;99.90;;;;;;5082729;28;20051;-65
2022/08/30 02:53:22;;;;;;;9.82;2.22;;;12.60;99.90;;;;;;5074083;28;20079;-65
2022/08/30 02:55:52;;;;;;;2.72;1.45;;;12.60;99.90;;;;;;5084086;28;20062;-65
2022/08/30 02:58:19;;;;;;;4.40;1.45;;;12.50;99.90;;;;;;5086531;28;20489;-68
2022/08/30 03:00:46;;;;;;;2.53;1.25;;;12.40;99.90;;;;;;5081831;28;20044;-65
2022/08/30 03:03:13;;;;;;;2.10;1.33;;;12.40;99.90;;;;;;5086426;28;20048;-64
2022/08/30 03:05:40;;;;;;;4.32;1.65;;;12.40;99.90;;;;;;5086077;28;20083;-66
2022/08/30 03:08:08;;;;;;;6.28;1.55;;;12.40;99.90;;;;;;5083889;28;20036;-64
2022/08/30 03:10:36;;;;;;;4.07;1.17;;;12.40;99.90;;;;;;5063579;28;20311;-64
2022/08/30 03:13:06;;;;;;;7.97;2.53;;;12.40;99.90;;;;;;5079668;28;20557;-65
2022/08/30 03:15:34;;;;;;;4.72;0.85;;;12.30;99.90;;;;;;5090066;28;20071;-76
2022/08/30 03:18:02;;;;;;;6.68;1.40;;;12.30;99.90;;;;;;5089567;28;20160;-78
2022/08/30 03:20:29;;;;;;;10.93;1.73;;;12.30;99.90;;;;;;5090642;28;20044;-64
2022/08/30 03:22:56;;;;;;;1.35;1.20;;;12.30;99.90;;;;;;5085402;28;20044;-67
2022/08/30 03:25:23;;;;;;;3.67;1.23;;;12.30;99.90;;;;;;5084901;28;20047;-75
2022/08/30 03:27:50;;;;;;;4.05;1.00;;;12.40;99.90;;;;;;5083841;28;20410;-64
2022/08/30 03:30:19;;;;;;;3.30;1.63;;;12.30;99.90;;;;;;5089630;28;20048;-65
2022/08/30 03:32:46;;;;;;;2.53;0.88;;;12.30;99.90;;;;;;5085425;28;20100;-70
2022/08/30 03:35:14;;;;;;;6.50;1.65;;;12.30;99.90;;;;;;5089671;28;20117;-70
2022/08/30 03:37:42;;;;;;;5.82;1.70;;;12.20;99.90;;;;;;5089750;28;20124;-64
2022/08/30 03:40:10;;;;;;;4.72;1.20;;;12.20;99.90;;;;;;5092992;28;20064;-77
2022/08/30 03:42:37;;;;;;;4.50;1.17;;;12.20;99.90;;;;;;5078968;28;20050;-67
2022/08/30 03:45:09;;;;;;;6.18;1.40;;;12.20;99.90;;;;;;5089524;28;20059;-69
2022/08/30 03:47:36;;;;;;;7.28;1.40;;;12.20;99.90;;;;;;5089920;28;20086;-65
2022/08/30 03:50:07;;;;;;;1.60;1.00;;;12.20;99.90;;;;;;5088842;28;20158;-64
2022/08/30 03:52:34;;;;;;;5.38;1.40;;;12.20;99.90;;;;;;5087664;28;20048;-69
2022/08/30 03:55:01;;;;;;;4.65;1.00;;;12.20;99.90;;;;;;5086078;28;20117;-66
2022/08/30 03:57:28;;;;;;;4.80;1.58;;;12.20;99.90;;;;;;5089144;28;20071;-64
2022/08/30 03:59:57;;;;;;;6.55;1.75;;;12.20;99.90;;;;;;5088653;28;20055;-69
2022/08/30 04:02:24;;;;;;;2.63;1.15;;;12.20;99.90;;;;;;5089536;28;20052;-65
2022/08/30 04:04:51;;;;;;;5.82;1.42;;;12.20;99.90;;;;;;5087494;28;20040;-64
2022/08/30 04:07:18;;;;;;;4.88;1.58;;;12.20;99.90;;;;;;5080768;28;20048;-64
2022/08/30 04:09:46;;;;;;;5.97;2.75;;;12.20;99.90;;;;;;5088814;28;20060;-64
2022/08/30 04:12:13;;;;;;;10.93;2.20;;;12.10;99.90;;;;;;5086032;28;20060;-64
2022/08/30 04:14:44;;;;;;;9.95;1.35;;;12.10;99.90;;;;;;5087432;28;20508;-70
2022/08/30 04:17:10;;;;;;;3.08;1.67;;;12.10;99.90;;;;;;5088775;28;20497;-70
2022/08/30 04:19:37;;;;;;;2.63;1.38;;;12.10;99.90;;;;;;5087875;28;20474;-68
2022/08/30 04:22:04;;;;;;;10.93;1.90;;;12.20;99.90;;;;;;5088473;28;20450;-66
2022/08/30 04:24:33;;;;;;;8.65;2.88;;;12.20;99.90;;;;;;5085982;28;20071;-64
2022/08/30 04:27:00;;;;;;;2.90;1.10;;;12.20;99.90;;;;;;5080011;28;20687;-70
2022/08/30 04:29:27;;;;;;;3.13;1.10;;;12.20;99.90;;;;;;5089485;28;20040;-64
2022/08/30 04:31:54;;;;;;;4.53;2.03;;;12.20;99.90;;;;;;5088785;28;20444;-71
2022/08/30 04:34:21;;;;;;;7.97;1.77;;;12.30;99.90;;;;;;5088709;28;20098;-65
2022/08/30 04:36:48;;;;;;;2.78;0.90;;;12.40;99.90;;;;;;5084730;28;20151;-64
2022/08/30 04:39:19;;;;;;;7.82;1.55;;;12.40;99.90;;;;;;5088280;28;20136;-64
2022/08/30 04:41:47;;;;;;;8.32;1.85;;;12.40;99.90;;;;;;5088853;28;20358;-64
2022/08/30 04:44:14;;;;;;;3.97;1.13;;;12.50;99.90;;;;;;5086834;28;20451;-66
2022/08/30 04:46:45;;;;;;;4.68;0.93;;;12.50;99.90;;;;;;5086811;28;20055;-65
2022/08/30 04:49:12;;;;;;;4.38;1.33;;;12.50;99.90;;;;;;5087288;28;20127;-68
2022/08/30 04:51:40;;;;;;;3.55;1.60;;;12.50;99.90;;;;;;5086354;28;20060;-74
2022/08/30 04:54:06;;;;;;;7.68;1.73;;;12.60;99.90;;;;;;5078603;28;20110;-70
2022/08/30 04:56:33;;;;;;;6.57;2.35;;;12.60;99.90;;;;;;5085066;28;20101;-66
2022/08/30 04:59:00;;;;;;;5.30;2.03;;;12.60;99.90;;;;;;5083705;28;20082;-75
2022/08/30 05:01:29;;;;;;;3.92;1.23;;;12.50;99.90;;;;;;5086650;28;20093;-63
2022/08/30 05:03:57;;;;;;;9.27;2.15;;;12.50;99.90;;;;;;5086437;28;20113;-64
2022/08/30 05:06:26;;;;;;;5.47;1.30;;;12.40;99.90;;;;;;5089808;28;20086;-77
2022/08/30 05:08:54;;;;;;;5.10;1.00;;;12.40;99.90;;;;;;5090003;27;20087;-70
2022/08/30 05:11:23;;;;;;;6.20;2.15;;;12.40;99.90;;;;;;5102132;27;20424;-67
2022/08/30 05:13:50;;;;;;;5.32;1.17;;;12.40;99.90;;;;;;5098000;28;20074;-64
2022/08/30 05:16:18;;;;;;;7.88;2.35;;;12.40;99.90;;;;;;5085530;28;20067;-65
2022/08/30 05:18:50;;;;;;;2.28;0.85;;;12.30;99.90;;;;;;5085161;28;20502;-66
2022/08/30 05:21:20;;;;;;;10.77;1.38;;;12.40;99.90;;;;;;5082063;28;20040;-65
2022/08/30 05:23:48;;;;;;;5.45;1.27;;;12.40;99.90;;;;;;5089094;28;20113;-65
2022/08/30 05:26:25;;;;;;;3.08;1.00;;;12.30;99.90;;;;;;5094148;28;20043;-67
2022/08/30 05:28:52;;;;;;;3.33;1.73;;;12.40;99.90;;;;;;5085155;28;20043;-73
2022/08/30 05:31:23;;;;;;;5.85;1.40;;;12.40;99.90;;;;;;5082328;28;20435;-66
2022/08/30 05:33:52;;;;;;;1.98;0.88;;;12.40;99.90;;;;;;5082320;28;20470;-65
2022/08/30 05:36:22;;;;;;;5.38;1.00;;;12.40;99.90;;;;;;5089781;28;20238;-64
2022/08/30 05:38:49;;;;;;;2.95;1.00;;;12.40;99.90;;;;;;5085971;28;20832;-66
2022/08/30 05:41:18;;;;;;;3.67;1.08;;;12.50;99.90;;;;;;5088152;28;20066;-65
2022/08/30 05:43:48;;;;;;;5.68;1.45;;;12.60;99.90;;;;;;5088458;28;20051;-65
2022/08/30 05:46:18;;;;;;;1.48;0.95;;;12.60;99.90;;;;;;5089403;28;20040;-76
2022/08/30 05:48:46;;;;;;;4.38;1.05;;;12.60;99.90;;;;;;5085711;28;20101;-65
2022/08/30 05:51:18;;;;;;;4.35;1.52;;;12.60;99.90;;;;;;5088405;28;20129;-68
2022/08/30 05:53:47;;;;;;;4.50;1.33;;;12.60;99.90;;;;;;5086494;28;20047;-65
2022/08/30 05:56:17;;;;;;;2.60;1.98;;;12.60;99.90;;;;;;5099423;27;20150;-65
2022/08/30 05:58:44;;;;;;;4.28;1.38;;;12.70;99.90;;;;;;5087842;27;20111;-65
2022/08/30 06:01:39;;;;;;;2.97;1.83;;;12.70;99.90;;;;;;5090320;28;20437;-66
2022/08/30 06:04:07;;;;;;;5.45;2.22;;;12.80;99.90;;;;;;5083940;28;20035;-68
2022/08/30 06:06:37;;;;;;;4.07;1.13;;;12.80;99.90;;;;;;5086197;28;20044;-65
2022/08/30 06:09:05;;;;;;;3.35;1.27;;;12.90;99.90;;;;;;5074800;28;20110;-65
2022/08/30 06:11:33;;;;;;;6.07;1.05;;;12.90;99.90;;;;;;5088061;28;20040;-66
2022/08/30 06:14:00;;;;;;;6.53;2.25;;;12.90;99.90;;;;;;5088412;28;20039;-66
2022/08/30 06:16:28;;;;;;;6.10;1.83;;;13.00;99.90;;;;;;5080953;28;20074;-66
2022/08/30 06:18:57;;;;;;;6.63;3.38;;;13.00;99.90;;;;;;5065334;28;20527;-74
2022/08/30 06:21:27;;;;;;;6.68;1.20;;;13.10;99.90;;;;;;5088242;28;20102;-65
2022/08/30 06:23:54;;;;;;;3.95;1.33;;;13.00;99.90;;;;;;5087423;28;20436;-67
2022/08/30 06:26:22;;;;;;;6.63;1.05;;;13.10;99.90;;;;;;5088060;28;20067;-65
2022/08/30 06:28:49;;;;;;;7.38;2.63;;;13.10;99.90;;;;;;5086399;28;20174;-69
2022/08/30 06:31:18;;;;;;;4.75;1.60;;;13.10;99.90;;;;;;5088269;28;20109;-65
2022/08/30 06:33:46;;;;;;;7.40;2.20;;;13.10;99.90;;;;;;5087444;28;20044;-68
2022/08/30 06:36:16;;;;;;;6.28;1.70;;;13.10;99.90;;;;;;5086145;28;20550;-65
2022/08/30 06:38:44;;;;;;;2.70;1.05;;;13.10;99.90;;;;;;5073026;28;20174;-68
2022/08/30 06:41:14;;;;;;;5.15;1.42;;;13.10;99.90;;;;;;5087465;28;20048;-65
2022/08/30 06:43:41;;;;;;;2.38;1.85;;;13.10;99.90;;;;;;5088224;28;20392;-65
2022/08/30 06:46:18;;;;;;;8.68;1.63;;;13.20;99.90;;;;;;5086684;28;20664;-68
2022/08/30 06:48:45;;;;;;;3.20;1.10;;;13.30;99.90;;;;;;5085689;28;20047;-67
2022/08/30 06:51:18;;;;;;;4.00;1.38;;;13.40;99.90;;;;;;5077395;28;20589;-64
2022/08/30 06:53:45;;;;;;;3.75;1.08;;;13.40;99.90;;;;;;5078277;28;20047;-66
2022/08/30 06:56:12;;;;;;;4.32;1.17;;;13.40;99.90;;;;;;5087258;28;20381;-64
2022/08/30 06:58:43;;;;;;;5.38;1.30;;;13.40;99.90;;;;;;5085941;28;20139;-64
2022/08/30 07:01:17;;;;;;;2.58;0.98;;;13.40;99.90;;;;;;5086797;28;20074;-65
2022/08/30 07:03:44;;;;;;;14.48;2.30;;;13.40;99.90;;;;;;5086914;28;20092;-65
2022/08/30 07:06:12;;;;;;;4.18;1.20;;;13.50;99.90;;;;;;5084433;28;20094;-67
2022/08/30 07:08:40;;;;;;;5.03;0.82;;;13.50;99.90;;;;;;5085193;28;20093;-68
2022/08/30 07:11:08;;;;;;;4.60;1.00;;;13.70;99.90;;;;;;5069001;28;20048;-64
2022/08/30 07:13:36;;;;;;;3.55;0.90;;;13.80;99.90;;;;;;5080556;28;20157;-75
2022/08/30 07:16:11;;;;;;;5.28;1.20;;;13.80;99.90;;;;;;5087305;28;20093;-65
2022/08/30 07:18:53;;;;;;;3.70;1.30;;;13.80;99.90;;;;;;5085121;28;20180;-64
2022/08/30 07:21:27;;;;;;;1.08;0.75;;;13.90;99.90;;;;;;5087425;28;20389;-65
2022/08/30 07:23:56;;;;;;;3.58;1.67;;;13.90;99.90;;;;;;5084243;28;20117;-66
2022/08/30 07:26:26;;;;;;;3.08;1.25;;;13.90;99.90;;;;;;5086496;28;20139;-67
2022/08/30 07:28:55;;;;;;;3.42;1.10;;;14.00;99.90;;;;;;5082429;28;20059;-70
2022/08/30 07:31:23;;;;;;;2.83;0.70;;;13.90;99.90;;;;;;5082967;28;20128;-72
2022/08/30 07:33:51;;;;;;;6.38;0.85;;;13.90;99.90;;;;;;5086248;28;20074;-69
2022/08/30 07:36:18;;;;;;;2.80;1.35;;;13.80;99.90;;;;;;5085651;28;20094;-64
2022/08/30 07:38:46;;;;;;;1.25;0.70;;;13.70;99.90;;;;;;5081354;28;20044;-78
2022/08/30 07:41:22;;;;;;;3.50;0.82;;;13.70;99.90;;;;;;5082781;28;20040;-64
2022/08/30 07:43:49;;;;;;;1.45;0.75;;;13.70;99.90;;;;;;5086124;28;20508;-65
2022/08/30 07:46:17;;;;;;;2.25;1.17;;;13.70;99.90;;;;;;5084410;28;20075;-65
2022/08/30 07:48:44;;;;;;;2.10;0.77;;;13.70;99.90;;;;;;5074079;28;20170;-66
2022/08/30 07:51:16;;;;;;;1.77;0.93;;;13.80;99.90;;;;;;5086176;28;20047;-66
2022/08/30 07:53:43;;;;;;;3.35;1.40;;;13.80;99.90;;;;;;5086302;28;20040;-70
2022/08/30 07:56:11;;;;;;;4.03;0.77;;;14.00;99.90;;;;;;5084105;28;20131;-64
2022/08/30 07:58:38;;;;;;;1.98;0.85;;;14.00;99.90;;;;;;5076668;28;20076;-64
2022/08/30 08:01:07;;;;;;;3.28;1.83;;;14.10;99.90;;;;;;5082898;28;20097;-65
2022/08/30 08:03:35;;;;;;;2.50;1.13;;;14.10;99.90;;;;;;5090433;28;20132;-65
2022/08/30 08:06:04;;;;;;;2.78;0.88;;;14.10;99.90;;;;;;5071330;28;20114;-66
2022/08/30 08:08:31;;;;;;;3.73;1.03;;;14.20;99.90;;;;;;5088782;28;20071;-67
2022/08/30 08:11:16;;;;;;;4.55;1.17;;;14.20;99.90;;;;;;5081228;28;20047;-64
2022/08/30 08:13:45;;;;;;;2.75;1.23;;;14.30;99.90;;;;;;5089909;28;20158;-64
2022/08/30 08:16:22;;;;;;;5.28;0.80;;;14.20;99.90;;;;;;5089962;28;20044;-64
2022/08/30 08:18:49;;;;;;;1.60;0.70;;;14.30;99.90;;;;;;5087615;28;20040;-69
2022/08/30 08:21:16;;;;;;;4.85;0.77;;;14.30;99.90;;;;;;5089643;28;20071;-65
2022/08/30 08:23:43;;;;;;;7.15;1.52;;;14.40;99.90;;;;;;5089821;28;20142;-64
2022/08/30 08:26:10;;;;;;;2.08;1.13;;;14.40;99.90;;;;;;5087085;28;20087;-70
2022/08/30 08:28:37;;;;;;;2.78;1.00;;;14.40;99.90;;;;;;5088446;28;20123;-66
2022/08/30 08:31:13;;;;;;;3.65;0.80;;;14.50;99.90;;;;;;5088747;28;20064;-69
2022/08/30 08:33:40;;;;;;;9.52;1.85;;;14.50;99.90;;;;;;5088788;28;20052;-65
2022/08/30 08:36:07;;;;;;;3.90;1.10;;;14.50;99.90;;;;;;5089581;28;20083;-65
2022/08/30 08:38:35;;;;;;;4.18;1.00;;;14.50;99.90;;;;;;5087793;28;20430;-69
2022/08/30 08:41:24;;;;;;;2.03;1.17;;;14.50;99.90;;;;;;5089464;28;20131;-64
2022/08/30 08:43:51;;;;;;;6.30;1.83;;;14.50;99.90;;;;;;5084955;28;20090;-66
2022/08/30 08:46:43;;;;;;;3.50;1.38;;;14.50;99.90;;;;;;5089979;28;20044;-65
2022/08/30 08:49:11;;;;;;;1.23;0.95;;;14.60;99.90;;;;;;5088708;28;20044;-74
2022/08/30 08:54:43;;;;;;;3.15;1.20;;;14.70;99.90;;;;;;5089673;28;20153;-72
2022/08/30 08:57:10;;;;;;;2.80;0.93;;;14.60;99.90;;;;;;5088064;28;20330;-64
2022/08/30 08:59:43;;;;;;;4.85;1.10;;;14.60;99.90;;;;;;5078411;28;20200;-67
2022/08/30 09:02:24;;;;;;;5.28;1.30;;;14.60;99.90;;;;;;5075004;28;20143;-64
2022/08/30 09:04:58;;;;;;;3.95;0.98;;;14.60;99.90;;;;;;5087339;28;20079;-64
2022/08/30 09:07:31;;;;;;;2.50;1.00;;;14.60;99.90;;;;;;5079251;28;20064;-65
2022/08/30 09:09:59;;;;;;;4.32;1.85;;;14.60;99.90;;;;;;5088311;28;20104;-64
2022/08/30 09:12:27;;;;;;;5.47;1.63;;;14.70;99.90;;;;;;5088765;28;20043;-65
2022/08/30 09:15:00;;;;;;;2.85;1.60;;;14.70;99.90;;;;;;5083548;28;20044;-68
2022/08/30 09:17:28;;;;;;;4.20;1.73;;;14.70;99.90;;;;;;5086944;28;20064;-64
2022/08/30 09:19:55;;;;;;;3.33;0.98;;;14.80;99.90;;;;;;5087195;28;20044;-66
2022/08/30 09:22:30;;;;;;;7.20;1.20;;;14.90;99.90;;;;;;5088764;28;20063;-67
2022/08/30 09:25:19;;;;;;;1.92;0.95;;;14.90;99.90;;;;;;5087137;28;20075;-70
2022/08/30 09:27:48;;;;;;;4.80;1.58;;;15.00;99.90;;;;;;5076367;28;20048;-65
2022/08/30 09:30:27;;;;;;;35.90;1.85;;;15.10;99.90;;;;;;5085833;28;20133;-66
2022/08/30 09:32:58;;;;;;;1.20;0.70;;;15.10;99.90;;;;;;5079660;28;20093;-66
2022/08/30 09:35:33;;;;;;;6.95;1.20;;;15.10;99.90;;;;;;5088361;28;20082;-67
2022/08/30 09:38:19;;;;;;;2.05;0.93;;;15.10;99.90;;;;;;5088071;28;20169;-65
2022/08/30 09:40:47;;;;;;;3.53;0.90;;;15.10;99.90;;;;;;5082327;28;20136;-73
2022/08/30 09:43:23;;;;;;;1.23;0.80;;;15.20;99.90;;;;;;5088297;28;20105;-69
2022/08/30 09:46:00;;;;;;;3.35;0.90;;;15.20;99.90;;;;;;5086626;28;20047;-67
2022/08/30 09:48:44;;;;;;;2.28;0.45;;;15.20;99.90;;;;;;5088482;28;20036;-71
2022/08/30 09:51:14;;;;;;;2.33;0.63;;;15.20;99.90;;;;;;5087635;28;20048;-76
2022/08/30 09:54:11;;;;;;;3.30;1.00;;;15.30;99.90;;;;;;5088479;28;20543;-69
2022/08/30 09:56:55;;;;;;;3.85;0.98;;;15.30;99.90;;;;;;5070400;28;20452;-65
2022/08/30 09:59:47;;;;;;;2.67;0.88;;;15.20;99.90;;;;;;5075422;28;20934;-67
2022/08/30 10:02:19;;;;;;;2.08;1.30;;;15.20;99.90;;;;;;5085485;28;20071;-65
2022/08/30 10:05:06;;;;;;;2.17;0.93;;;15.30;99.90;;;;;;5086387;28;20689;-64
2022/08/30 10:07:43;;;;;;;4.30;0.93;;;15.30;99.90;;;;;;5079651;28;20457;-69
2022/08/30 10:10:39;;;;;;;4.78;1.30;;;15.30;99.90;;;;;;5085197;28;20060;-73
2022/08/30 10:13:32;;;;;;;2.85;1.00;;;15.30;99.90;;;;;;5087993;28;20134;-65
2022/08/30 10:16:28;;;;;;;3.70;1.13;;;15.40;99.90;;;;;;5086013;28;20032;-66
2022/08/30 10:19:07;;;;;;;2.55;1.67;;;15.50;99.90;;;;;;5076184;28;20517;-70
2022/08/30 10:21:47;;;;;;;1.02;0.60;;;15.60;99.90;;;;;;5095557;28;20043;-70
2022/08/30 10:24:23;;;;;;;2.58;0.80;;;15.50;99.90;;;;;;5084616;28;20108;-65
2022/08/30 10:27:12;;;;;;;1.25;0.93;;;15.50;99.90;;;;;;5077602;28;20574;-67
2022/08/30 10:29:53;;;;;;;7.05;1.33;;;15.60;99.90;;;;;;5086082;28;20039;-66
2022/08/30 10:32:27;;;;;;;4.72;1.33;;;15.60;99.90;;;;;;5078996;28;20046;-66
2022/08/30 10:35:03;;;;;;;1.00;0.75;;;15.50;99.90;;;;;;5087773;27;20043;-67
2022/08/30 10:37:38;;;;;;;5.80;0.90;;;15.60;99.90;;;;;;5085020;28;20532;-75
2022/08/30 10:43:32;;;;;;;1.38;0.68;;;15.70;99.90;;;;;;5086042;27;20055;-65
2022/08/30 10:46:07;;;;;;;3.00;0.85;;;15.90;99.90;;;;;;5087808;28;20440;-65
2022/08/30 10:48:40;;;;;;;6.38;0.98;;;15.90;99.90;;;;;;5090172;27;20095;-76
2022/08/30 10:51:28;;;;;;;2.70;0.90;;;15.90;99.90;;;;;;5084080;27;22258;-66
2022/08/30 10:54:01;;;;;;;0.80;0.73;;;16.00;99.90;;;;;;5082264;28;20048;-68
2022/08/30 10:56:28;;;;;;;1.85;0.75;;;16.00;99.90;;;;;;5087142;28;20056;-66
2022/08/30 10:58:57;;;;;;;1.10;0.70;;;16.00;99.90;;;;;;5086755;28;20938;-68
2022/08/30 11:01:51;;;;;;;4.68;1.42;;;16.00;99.90;;;;;;5083933;28;20071;-67
2022/08/30 11:04:37;;;;;;;4.00;1.15;;;16.10;99.90;;;;;;5071316;27;20458;-67
2022/08/30 11:07:38;;;;;;;2.40;1.05;;;16.00;99.90;;;;;;5077011;28;20055;-65
2022/08/30 11:10:30;;;;;;;4.13;0.93;;;16.00;99.90;;;;;;5079250;28;20067;-67
2022/08/30 11:13:09;;;;;;;2.58;1.20;;;16.10;99.90;;;;;;5083087;28;20051;-65
2022/08/30 11:15:53;;;;;;;2.38;0.57;;;16.20;99.90;;;;;;5090418;28;20043;-67
2022/08/30 11:18:22;;;;;;;3.78;1.52;;;16.30;99.90;;;;;;5076682;28;20044;-69
2022/08/30 11:20:55;;;;;;;5.25;1.05;;;16.30;99.90;;;;;;5087185;28;21975;-72
2022/08/30 11:23:33;;;;;;;2.13;0.88;;;16.20;99.90;;;;;;5082076;27;20040;-65
2022/08/30 11:26:08;;;;;;;2.42;0.90;;;16.20;99.90;;;;;;5094130;27;20055;-65
2022/08/30 11:28:46;;;;;;;1.95;1.05;;;16.30;99.90;;;;;;5062212;28;20112;-70
2022/08/30 11:31:21;;;;;;;1.30;0.45;;;16.20;99.90;;;;;;5085074;27;20140;-66
2022/08/30 11:33:52;;;;;;;5.13;1.58;;;16.20;99.90;;;;;;5094436;27;20105;-66
2022/08/30 11:36:27;;;;;;;2.58;0.47;;;16.20;99.90;;;;;;5088435;28;20051;-75
2022/08/30 11:39:08;;;;;;;1.33;0.60;;;16.40;99.90;;;;;;5083741;28;20040;-76
2022/08/30 11:41:39;;;;;;;2.50;0.50;;;16.40;99.90;;;;;;5087375;27;20086;-75
2022/08/30 11:44:31;;;;;;;5.70;1.25;;;16.40;99.90;;;;;;5092877;28;20341;-76
2022/08/30 11:47:01;;;;;;;1.83;0.85;;;16.30;99.90;;;;;;5085133;28;20836;-65
2022/08/30 11:50:15;;;;;;;2.97;1.05;;;16.30;99.90;;;;;;5085255;28;20104;-66
2022/08/30 11:53:06;;;;;;;2.10;0.88;;;16.40;99.90;;;;;;5049743;28;20135;-66
2022/08/30 11:55:41;;;;;;;3.40;0.70;;;16.40;99.90;;;;;;5096343;27;20659;-70
2022/08/30 11:58:34;;;;;;;4.22;1.02;;;16.40;99.90;;;;;;5089197;28;20111;-66
2022/08/30 12:01:16;;;;;;;6.20;0.85;;;16.40;99.90;;;;;;5086093;28;20093;-65
2022/08/30 12:04:06;;;;;;;4.07;1.08;;;16.40;99.90;;;;;;5089661;28;20061;-65
2022/08/30 12:06:40;;;;;;;1.05;0.73;;;16.40;99.90;;;;;;5084252;28;20146;-65
2022/08/30 12:09:29;;;;;;;4.75;1.23;;;16.50;99.90;;;;;;5088168;28;20054;-78
2022/08/30 12:12:33;;;;;;;2.20;0.57;;;16.50;99.90;;;;;;5087982;28;20105;-66
2022/08/30 12:15:01;;;;;;;1.58;0.57;;;16.50;99.90;;;;;;5071627;28;20052;-67
2022/08/30 12:20:41;;;;;;;;;;;16.30;99.90;;;;;;5088596;28;20709;-70
2022/08/30 12:23:37;;;;;;;1.52;0.88;;;16.30;99.90;;;;;;5086042;28;19965;-66
2022/08/30 12:26:16;;;;;;;2.45;0.73;;;16.30;99.90;;;;;;5085653;28;20068;-65
2022/08/30 12:28:47;;;;;;;2.55;0.73;;;16.30;99.90;;;;;;5084583;28;20039;-70
2022/08/30 12:31:22;;;;;;;2.27;0.50;;;16.40;99.90;;;;;;5085909;28;20105;-66
2022/08/30 12:33:55;;;;;;;0.55;0.50;;;16.30;99.90;;;;;;5087600;28;20296;-67
2022/08/30 12:36:48;;;;;;;1.42;0.60;;;16.40;99.90;;;;;;5086129;28;20132;-66
2022/08/30 12:39:20;;;;;;;5.43;1.20;;;16.30;99.90;;;;;;5092015;28;20063;-67
2022/08/30 12:41:47;;;;;;;2.20;1.08;;;16.20;99.90;;;;;;5090588;27;20047;-66
2022/08/30 12:44:19;;;;;;;1.60;0.68;;;16.30;99.90;;;;;;5093426;28;20343;-68
2022/08/30 12:46:50;;;;;;;2.30;0.95;;;16.30;99.90;;;;;;5093686;28;20060;-73
2022/08/30 12:49:26;;;;;;;2.28;0.65;;;16.20;99.90;;;;;;5082568;28;20055;-67
2022/08/30 12:51:53;;;;;;;;;;;16.40;99.90;;;;;;5091371;28;20064;-66
2022/08/30 12:54:26;;;;;;;2.22;0.63;;;16.40;99.90;;;;;;5094592;27;19962;-65
2022/08/30 12:56:58;;;;;;;1.45;0.90;;;16.50;99.90;;;;;;5083682;28;20044;-69
2022/08/30 12:59:55;;;;;;;1.83;1.02;;;16.60;99.90;;;;;;5088486;28;20064;-65
2022/08/30 13:02:50;;;;;;;2.95;0.75;;;16.60;99.90;;;;;;5072978;28;20052;-82
2022/08/30 13:05:39;;;;;;;1.55;0.50;;;16.70;99.90;;;;;;5091531;28;20195;-72
2022/08/30 13:08:14;;;;;;;1.13;0.40;;;16.80;99.90;;;;;;5091413;28;20050;-70
2022/08/30 13:10:52;;;;;;;3.47;1.52;;;17.10;99.90;;;;;;5083392;28;20048;-67
2022/08/30 13:13:39;;;;;;;1.17;0.52;;;17.20;99.90;;;;;;5081228;28;20033;-66
2022/08/30 13:16:21;;;;;;;1.45;0.73;;;17.30;99.90;;;;;;5088607;28;20036;-65
2022/08/30 13:19:11;;;;;;;2.97;0.75;;;17.20;99.90;;;;;;5087171;28;20051;-66
2022/08/30 13:21:50;;;;;;;0.80;0.40;;;17.40;99.90;;;;;;5082229;28;20689;-65
2022/08/30 13:24:17;;;;;;;0.70;0.20;;;17.40;99.90;;;;;;5088505;28;20044;-65